sensor_id;sensor_type;location;lat;lon;timestamp;temperature;humidity
70851;DHT22;58475;49.662;9.636;2023-03-03T00:01:06;1.92;86.00
70851;DHT22;58475;49.662;9.636;2023-03-03T00:03:32;1.91;86.16
70851;DHT22;58475;49.662;9.636;2023-03-03T00:05:58;1.92;86.41
70851;DHT22;58475;49.662;9.636;2023-03-03T00:08:25;1.92;86.42
70851;DHT22;58475;49.662;9.636;2023-03-03T00:10:50;1.92;86.43
70851;DHT22;58475;49.662;9.636;2023-03-03T00:13:25;1.88;86.51
70851;DHT22;58475;49.662;9.636;2023-03-03T00:15:52;1.88;86.70
70851;DHT22;58475;49.662;9.636;2023-03-03T00:18:30;1.86;86.77
70851;DHT22;58475;49.662;9.636;2023-03-03T00:20:59;1.82;86.51
70851;DHT22;58475;49.662;9.636;2023-03-03T00:23:29;1.81;86.51
70851;DHT22;58475;49.662;9.636;2023-03-03T00:25:56;1.89;86.33
70851;DHT22;58475;49.662;9.636;2023-03-03T00:28:31;1.95;86.16
70851;DHT22;58475;49.662;9.636;2023-03-03T00:30:59;1.97;85.96
70851;DHT22;58475;49.662;9.636;2023-03-03T00:33:28;1.98;85.97
70851;DHT22;58475;49.662;9.636;2023-03-03T00:36:05;1.97;85.63
70851;DHT22;58475;49.662;9.636;2023-03-03T00:38:34;1.78;86.59
70851;DHT22;58475;49.662;9.636;2023-03-03T00:41:01;1.74;86.33
70851;DHT22;58475;49.662;9.636;2023-03-03T00:43:34;1.70;86.56
70851;DHT22;58475;49.662;9.636;2023-03-03T00:46:00;1.67;86.64
70851;DHT22;58475;49.662;9.636;2023-03-03T00:48:28;1.67;86.65
70851;DHT22;58475;49.662;9.636;2023-03-03T00:50:59;1.65;86.85
70851;DHT22;58475;49.662;9.636;2023-03-03T00:53:27;1.65;86.70
70851;DHT22;58475;49.662;9.636;2023-03-03T00:55:53;1.63;86.83
70851;DHT22;58475;49.662;9.636;2023-03-03T00:58:20;1.61;86.86
70851;DHT22;58475;49.662;9.636;2023-03-03T01:00:54;1.60;86.76
70851;DHT22;58475;49.662;9.636;2023-03-03T01:03:25;1.60;86.91
70851;DHT22;58475;49.662;9.636;2023-03-03T01:05:52;1.57;86.85
70851;DHT22;58475;49.662;9.636;2023-03-03T01:08:19;1.58;87.15
70851;DHT22;58475;49.662;9.636;2023-03-03T01:10:51;1.54;86.82
70851;DHT22;58475;49.662;9.636;2023-03-03T01:13:17;1.55;87.11
70851;DHT22;58475;49.662;9.636;2023-03-03T01:15:43;1.54;86.79
70851;DHT22;58475;49.662;9.636;2023-03-03T01:18:10;1.53;87.22
70851;DHT22;58475;49.662;9.636;2023-03-03T01:20:36;1.57;87.47
70851;DHT22;58475;49.662;9.636;2023-03-03T01:23:02;1.53;87.22
70851;DHT22;58475;49.662;9.636;2023-03-03T01:25:28;1.51;87.13
70851;DHT22;58475;49.662;9.636;2023-03-03T01:27:53;1.50;87.11
70851;DHT22;58475;49.662;9.636;2023-03-03T01:30:19;1.50;87.41
70851;DHT22;58475;49.662;9.636;2023-03-03T01:32:44;1.50;87.27
70851;DHT22;58475;49.662;9.636;2023-03-03T01:35:10;1.51;87.59
70851;DHT22;58475;49.662;9.636;2023-03-03T01:37:36;1.50;87.45
70851;DHT22;58475;49.662;9.636;2023-03-03T01:40:03;1.47;87.49
70851;DHT22;58475;49.662;9.636;2023-03-03T01:42:28;1.46;87.33
70851;DHT22;58475;49.662;9.636;2023-03-03T01:47:42;1.44;87.61
70851;DHT22;58475;49.662;9.636;2023-03-03T01:50:11;1.43;87.76
70851;DHT22;58475;49.662;9.636;2023-03-03T01:52:41;1.44;87.72
70851;DHT22;58475;49.662;9.636;2023-03-03T01:55:17;1.43;87.78
70851;DHT22;58475;49.662;9.636;2023-03-03T01:57:49;1.43;87.83
70851;DHT22;58475;49.662;9.636;2023-03-03T02:00:17;1.44;87.77
70851;DHT22;58475;49.662;9.636;2023-03-03T02:02:44;1.44;87.68
70851;DHT22;58475;49.662;9.636;2023-03-03T02:05:10;1.44;87.63
70851;DHT22;58475;49.662;9.636;2023-03-03T02:07:37;1.43;87.75
70851;DHT22;58475;49.662;9.636;2023-03-03T02:10:06;1.42;88.12
70851;DHT22;58475;49.662;9.636;2023-03-03T02:12:40;1.42;87.53
70851;DHT22;58475;49.662;9.636;2023-03-03T02:15:16;1.42;87.61
70851;DHT22;58475;49.662;9.636;2023-03-03T02:17:43;1.42;87.83
70851;DHT22;58475;49.662;9.636;2023-03-03T02:20:37;1.43;87.67
70851;DHT22;58475;49.662;9.636;2023-03-03T02:23:10;1.36;87.42
70851;DHT22;58475;49.662;9.636;2023-03-03T02:25:47;1.36;87.81
70851;DHT22;58475;49.662;9.636;2023-03-03T02:28:15;1.36;87.89
70851;DHT22;58475;49.662;9.636;2023-03-03T02:30:41;1.37;88.11
70851;DHT22;58475;49.662;9.636;2023-03-03T02:33:07;1.37;88.07
70851;DHT22;58475;49.662;9.636;2023-03-03T02:35:36;1.36;87.90
70851;DHT22;58475;49.662;9.636;2023-03-03T02:38:26;1.33;87.50
70851;DHT22;58475;49.662;9.636;2023-03-03T02:40:58;1.32;87.65
70851;DHT22;58475;49.662;9.636;2023-03-03T02:43:30;1.34;87.73
70851;DHT22;58475;49.662;9.636;2023-03-03T02:45:57;1.36;87.74
70851;DHT22;58475;49.662;9.636;2023-03-03T02:48:23;1.33;87.70
70851;DHT22;58475;49.662;9.636;2023-03-03T02:50:48;1.33;87.47
70851;DHT22;58475;49.662;9.636;2023-03-03T02:53:14;1.33;87.91
70851;DHT22;58475;49.662;9.636;2023-03-03T02:55:40;1.33;87.97
70851;DHT22;58475;49.662;9.636;2023-03-03T02:58:05;1.33;87.75
70851;DHT22;58475;49.662;9.636;2023-03-03T03:00:31;1.29;87.94
70851;DHT22;58475;49.662;9.636;2023-03-03T03:02:57;1.33;88.16
70851;DHT22;58475;49.662;9.636;2023-03-03T03:05:23;1.34;88.04
70851;DHT22;58475;49.662;9.636;2023-03-03T03:07:49;1.29;87.98
70851;DHT22;58475;49.662;9.636;2023-03-03T03:10:15;1.29;87.84
70851;DHT22;58475;49.662;9.636;2023-03-03T03:12:40;1.30;87.71
70851;DHT22;58475;49.662;9.636;2023-03-03T03:15:08;1.29;87.64
70851;DHT22;58475;49.662;9.636;2023-03-03T03:17:37;1.27;87.85
70851;DHT22;58475;49.662;9.636;2023-03-03T03:20:03;1.30;87.73
70851;DHT22;58475;49.662;9.636;2023-03-03T03:22:29;1.29;87.67
70851;DHT22;58475;49.662;9.636;2023-03-03T03:24:54;1.27;87.60
70851;DHT22;58475;49.662;9.636;2023-03-03T03:27:20;1.23;87.69
70851;DHT22;58475;49.662;9.636;2023-03-03T03:29:48;1.30;88.02
70851;DHT22;58475;49.662;9.636;2023-03-03T03:32:14;1.27;88.04
70851;DHT22;58475;49.662;9.636;2023-03-03T03:34:39;1.29;87.79
70851;DHT22;58475;49.662;9.636;2023-03-03T03:37:06;1.22;87.80
70851;DHT22;58475;49.662;9.636;2023-03-03T03:39:34;1.23;87.83
70851;DHT22;58475;49.662;9.636;2023-03-03T03:41:59;1.24;87.88
70851;DHT22;58475;49.662;9.636;2023-03-03T03:44:25;1.24;88.01
70851;DHT22;58475;49.662;9.636;2023-03-03T03:46:52;1.24;87.79
70851;DHT22;58475;49.662;9.636;2023-03-03T03:49:18;1.20;87.72
70851;DHT22;58475;49.662;9.636;2023-03-03T03:51:44;1.22;88.09
70851;DHT22;58475;49.662;9.636;2023-03-03T03:54:13;1.23;88.02
70851;DHT22;58475;49.662;9.636;2023-03-03T03:56:39;1.23;88.14
70851;DHT22;58475;49.662;9.636;2023-03-03T03:59:06;1.22;88.11
70851;DHT22;58475;49.662;9.636;2023-03-03T04:01:32;1.22;88.20
70851;DHT22;58475;49.662;9.636;2023-03-03T04:03:57;1.19;88.16
70851;DHT22;58475;49.662;9.636;2023-03-03T04:06:23;1.20;88.20
70851;DHT22;58475;49.662;9.636;2023-03-03T04:08:50;1.22;88.16
70851;DHT22;58475;49.662;9.636;2023-03-03T04:11:18;1.22;88.29
70851;DHT22;58475;49.662;9.636;2023-03-03T04:13:43;1.23;88.35
70851;DHT22;58475;49.662;9.636;2023-03-03T04:16:10;1.23;88.17
70851;DHT22;58475;49.662;9.636;2023-03-03T04:18:38;1.26;88.29
70851;DHT22;58475;49.662;9.636;2023-03-03T04:21:03;1.23;88.11
70851;DHT22;58475;49.662;9.636;2023-03-03T04:23:30;1.26;88.22
70851;DHT22;58475;49.662;9.636;2023-03-03T04:25:57;1.29;88.31
70851;DHT22;58475;49.662;9.636;2023-03-03T04:28:23;1.29;88.08
70851;DHT22;58475;49.662;9.636;2023-03-03T04:30:50;1.32;88.14
70851;DHT22;58475;49.662;9.636;2023-03-03T04:33:16;1.30;88.46
70851;DHT22;58475;49.662;9.636;2023-03-03T04:35:42;1.30;88.08
70851;DHT22;58475;49.662;9.636;2023-03-03T04:38:07;1.36;88.74
70851;DHT22;58475;49.662;9.636;2023-03-03T04:40:34;1.36;88.31
70851;DHT22;58475;49.662;9.636;2023-03-03T04:43:01;1.34;88.62
70851;DHT22;58475;49.662;9.636;2023-03-03T04:45:26;1.34;88.60
70851;DHT22;58475;49.662;9.636;2023-03-03T04:47:52;1.36;88.75
70851;DHT22;58475;49.662;9.636;2023-03-03T04:50:17;1.37;88.91
70851;DHT22;58475;49.662;9.636;2023-03-03T04:52:43;1.37;88.58
70851;DHT22;58475;49.662;9.636;2023-03-03T04:55:10;1.40;88.77
70851;DHT22;58475;49.662;9.636;2023-03-03T04:57:35;1.40;88.58
70851;DHT22;58475;49.662;9.636;2023-03-03T05:00:01;1.39;88.59
70851;DHT22;58475;49.662;9.636;2023-03-03T05:02:28;1.40;88.67
70851;DHT22;58475;49.662;9.636;2023-03-03T05:04:54;1.44;88.89
70851;DHT22;58475;49.662;9.636;2023-03-03T05:07:19;1.46;88.83
70851;DHT22;58475;49.662;9.636;2023-03-03T05:09:48;1.46;88.74
70851;DHT22;58475;49.662;9.636;2023-03-03T05:12:13;1.47;89.01
70851;DHT22;58475;49.662;9.636;2023-03-03T05:14:39;1.50;88.94
70851;DHT22;58475;49.662;9.636;2023-03-03T05:17:04;1.50;88.89
70851;DHT22;58475;49.662;9.636;2023-03-03T05:19:30;1.47;88.56
70851;DHT22;58475;49.662;9.636;2023-03-03T05:21:56;1.51;89.06
70851;DHT22;58475;49.662;9.636;2023-03-03T05:24:21;1.48;88.67
70851;DHT22;58475;49.662;9.636;2023-03-03T05:26:48;1.51;89.13
70851;DHT22;58475;49.662;9.636;2023-03-03T05:29:13;1.53;88.89
70851;DHT22;58475;49.662;9.636;2023-03-03T05:31:38;1.51;88.99
70851;DHT22;58475;49.662;9.636;2023-03-03T05:34:04;1.55;89.04
70851;DHT22;58475;49.662;9.636;2023-03-03T05:36:30;1.53;89.21
70851;DHT22;58475;49.662;9.636;2023-03-03T05:38:55;1.55;89.34
70851;DHT22;58475;49.662;9.636;2023-03-03T05:41:20;1.53;89.00
70851;DHT22;58475;49.662;9.636;2023-03-03T05:43:46;1.50;89.01
70851;DHT22;58475;49.662;9.636;2023-03-03T05:46:11;1.53;88.94
70851;DHT22;58475;49.662;9.636;2023-03-03T05:48:37;1.51;88.93
70851;DHT22;58475;49.662;9.636;2023-03-03T05:51:02;1.54;89.25
70851;DHT22;58475;49.662;9.636;2023-03-03T05:53:28;1.53;89.00
70851;DHT22;58475;49.662;9.636;2023-03-03T05:55:54;1.55;88.93
70851;DHT22;58475;49.662;9.636;2023-03-03T05:58:20;1.55;89.08
70851;DHT22;58475;49.662;9.636;2023-03-03T06:00:45;1.53;88.53
70851;DHT22;58475;49.662;9.636;2023-03-03T06:03:11;1.54;88.73
70851;DHT22;58475;49.662;9.636;2023-03-03T06:05:36;1.57;88.74
70851;DHT22;58475;49.662;9.636;2023-03-03T06:08:02;1.54;88.56
70851;DHT22;58475;49.662;9.636;2023-03-03T06:10:27;1.60;88.90
70851;DHT22;58475;49.662;9.636;2023-03-03T06:12:56;1.60;89.12
70851;DHT22;58475;49.662;9.636;2023-03-03T06:15:22;1.60;88.81
70851;DHT22;58475;49.662;9.636;2023-03-03T06:17:48;1.61;89.13
70851;DHT22;58475;49.662;9.636;2023-03-03T06:20:13;1.63;88.92
70851;DHT22;58475;49.662;9.636;2023-03-03T06:22:39;1.64;88.72
70851;DHT22;58475;49.662;9.636;2023-03-03T06:25:04;1.63;88.80
70851;DHT22;58475;49.662;9.636;2023-03-03T06:27:30;1.65;88.98
70851;DHT22;58475;49.662;9.636;2023-03-03T06:29:55;1.64;88.92
70851;DHT22;58475;49.662;9.636;2023-03-03T06:32:21;1.64;88.79
70851;DHT22;58475;49.662;9.636;2023-03-03T06:34:46;1.64;89.01
70851;DHT22;58475;49.662;9.636;2023-03-03T06:37:12;1.65;88.76
70851;DHT22;58475;49.662;9.636;2023-03-03T06:39:37;1.64;88.68
70851;DHT22;58475;49.662;9.636;2023-03-03T06:42:03;1.64;88.94
70851;DHT22;58475;49.662;9.636;2023-03-03T06:44:28;1.65;88.52
70851;DHT22;58475;49.662;9.636;2023-03-03T06:46:54;1.67;88.63
70851;DHT22;58475;49.662;9.636;2023-03-03T06:49:21;1.67;88.61
70851;DHT22;58475;49.662;9.636;2023-03-03T06:51:47;1.68;88.66
70851;DHT22;58475;49.662;9.636;2023-03-03T06:54:18;1.68;88.64
70851;DHT22;58475;49.662;9.636;2023-03-03T06:56:44;1.70;88.51
70851;DHT22;58475;49.662;9.636;2023-03-03T06:59:16;1.68;88.61
70851;DHT22;58475;49.662;9.636;2023-03-03T07:01:43;1.70;88.37
70851;DHT22;58475;49.662;9.636;2023-03-03T07:04:26;1.70;88.51
70851;DHT22;58475;49.662;9.636;2023-03-03T07:06:54;1.71;88.72
70851;DHT22;58475;49.662;9.636;2023-03-03T07:09:25;1.73;88.54
70851;DHT22;58475;49.662;9.636;2023-03-03T07:11:52;1.74;88.47
70851;DHT22;58475;49.662;9.636;2023-03-03T07:14:20;1.73;88.41
70851;DHT22;58475;49.662;9.636;2023-03-03T07:16:51;1.75;88.65
70851;DHT22;58475;49.662;9.636;2023-03-03T07:19:26;1.75;88.48
70851;DHT22;58475;49.662;9.636;2023-03-03T07:21:54;1.77;88.41
70851;DHT22;58475;49.662;9.636;2023-03-03T07:24:29;1.77;88.69
70851;DHT22;58475;49.662;9.636;2023-03-03T07:27:00;1.78;88.42
70851;DHT22;58475;49.662;9.636;2023-03-03T07:29:32;1.81;88.45
70851;DHT22;58475;49.662;9.636;2023-03-03T07:32:00;1.81;88.61
70851;DHT22;58475;49.662;9.636;2023-03-03T07:34:30;1.81;88.61
70851;DHT22;58475;49.662;9.636;2023-03-03T07:37:10;1.84;88.21
70851;DHT22;58475;49.662;9.636;2023-03-03T07:39:39;1.82;88.41
70851;DHT22;58475;49.662;9.636;2023-03-03T07:42:21;1.84;88.61
70851;DHT22;58475;49.662;9.636;2023-03-03T07:44:56;1.88;88.72
70851;DHT22;58475;49.662;9.636;2023-03-03T07:47:27;1.89;88.70
70851;DHT22;58475;49.662;9.636;2023-03-03T07:50:00;1.88;88.68
70851;DHT22;58475;49.662;9.636;2023-03-03T07:52:31;1.89;88.70
70851;DHT22;58475;49.662;9.636;2023-03-03T07:57:53;1.95;88.78
70851;DHT22;58475;49.662;9.636;2023-03-03T08:03:02;1.97;88.72
70851;DHT22;58475;49.662;9.636;2023-03-03T08:05:35;1.99;88.60
70851;DHT22;58475;49.662;9.636;2023-03-03T08:16:16;2.06;88.70
70851;DHT22;58475;49.662;9.636;2023-03-03T08:18:47;2.06;88.75
70851;DHT22;58475;49.662;9.636;2023-03-03T08:21:23;2.13;88.76
70851;DHT22;58475;49.662;9.636;2023-03-03T08:23:49;2.13;88.82
70851;DHT22;58475;49.662;9.636;2023-03-03T08:26:20;2.16;88.76
70851;DHT22;58475;49.662;9.636;2023-03-03T08:28:46;2.19;88.85
70851;DHT22;58475;49.662;9.636;2023-03-03T08:31:11;2.22;88.63
70851;DHT22;58475;49.662;9.636;2023-03-03T08:33:38;2.23;88.69
70851;DHT22;58475;49.662;9.636;2023-03-03T08:36:04;2.29;88.79
70851;DHT22;58475;49.662;9.636;2023-03-03T08:38:30;2.30;88.59
70851;DHT22;58475;49.662;9.636;2023-03-03T08:40:55;2.33;88.57
70851;DHT22;58475;49.662;9.636;2023-03-03T08:43:21;2.35;88.48
70851;DHT22;58475;49.662;9.636;2023-03-03T08:45:57;2.37;88.45
70851;DHT22;58475;49.662;9.636;2023-03-03T08:48:24;2.39;88.58
70851;DHT22;58475;49.662;9.636;2023-03-03T08:50:50;2.44;88.66
70851;DHT22;58475;49.662;9.636;2023-03-03T08:53:17;2.49;88.73
70851;DHT22;58475;49.662;9.636;2023-03-03T08:55:44;2.52;88.67
70851;DHT22;58475;49.662;9.636;2023-03-03T08:58:10;2.56;88.54
70851;DHT22;58475;49.662;9.636;2023-03-03T09:00:35;2.54;88.64
70851;DHT22;58475;49.662;9.636;2023-03-03T09:03:01;2.57;88.61
70851;DHT22;58475;49.662;9.636;2023-03-03T09:05:28;2.64;88.59
70851;DHT22;58475;49.662;9.636;2023-03-03T09:07:54;2.68;88.68
70851;DHT22;58475;49.662;9.636;2023-03-03T09:10:23;2.70;88.54
70851;DHT22;58475;49.662;9.636;2023-03-03T09:12:52;2.76;88.44
70851;DHT22;58475;49.662;9.636;2023-03-03T09:15:22;2.76;88.43
70851;DHT22;58475;49.662;9.636;2023-03-03T09:17:48;2.81;88.46
70851;DHT22;58475;49.662;9.636;2023-03-03T09:23:20;2.90;88.32
70851;DHT22;58475;49.662;9.636;2023-03-03T09:25:49;2.94;88.22
70851;DHT22;58475;49.662;9.636;2023-03-03T09:28:27;3.00;88.16
70851;DHT22;58475;49.662;9.636;2023-03-03T09:30:55;3.04;88.22
70851;DHT22;58475;49.662;9.636;2023-03-03T09:33:41;3.05;88.21
70851;DHT22;58475;49.662;9.636;2023-03-03T09:36:28;3.12;88.00
70851;DHT22;58475;49.662;9.636;2023-03-03T09:38:55;3.18;88.23
70851;DHT22;58475;49.662;9.636;2023-03-03T09:44:18;3.26;88.12
70851;DHT22;58475;49.662;9.636;2023-03-03T09:49:28;3.36;88.00
70851;DHT22;58475;49.662;9.636;2023-03-03T09:57:42;3.51;87.93
70851;DHT22;58475;49.662;9.636;2023-03-03T10:06:03;3.70;88.43
70851;DHT22;58475;49.662;9.636;2023-03-03T10:17:21;3.90;88.04
70851;DHT22;58475;49.662;9.636;2023-03-03T10:28:18;4.10;87.54
70851;DHT22;58475;49.662;9.636;2023-03-03T10:31:08;4.14;87.48
70851;DHT22;58475;49.662;9.636;2023-03-03T10:33:46;4.18;87.48
70851;DHT22;58475;49.662;9.636;2023-03-03T10:36:48;4.24;87.39
70851;DHT22;58475;49.662;9.636;2023-03-03T10:42:05;4.34;87.26
70851;DHT22;58475;49.662;9.636;2023-03-03T10:45:10;4.38;87.08
70851;DHT22;58475;49.662;9.636;2023-03-03T10:53:30;4.49;86.97
70851;DHT22;58475;49.662;9.636;2023-03-03T10:59:02;4.58;86.81
70851;DHT22;58475;49.662;9.636;2023-03-03T11:07:05;4.75;86.75
70851;DHT22;58475;49.662;9.636;2023-03-03T11:17:47;4.93;86.47
70851;DHT22;58475;49.662;9.636;2023-03-03T11:20:41;4.96;86.59
70851;DHT22;58475;49.662;9.636;2023-03-03T11:23:37;5.04;86.45
70851;DHT22;58475;49.662;9.636;2023-03-03T11:28:58;5.13;86.21
70851;DHT22;58475;49.662;9.636;2023-03-03T11:31:35;5.19;86.03
70851;DHT22;58475;49.662;9.636;2023-03-03T11:36:48;5.27;85.95
70851;DHT22;58475;49.662;9.636;2023-03-03T11:39:22;5.33;85.92
70851;DHT22;58475;49.662;9.636;2023-03-03T11:44:59;5.43;85.86
70851;DHT22;58475;49.662;9.636;2023-03-03T11:47:41;5.51;85.83
70851;DHT22;58475;49.662;9.636;2023-03-03T11:50:27;5.52;85.73
70851;DHT22;58475;49.662;9.636;2023-03-03T11:55:35;5.64;85.48
70851;DHT22;58475;49.662;9.636;2023-03-03T11:58:11;5.69;85.25
70851;DHT22;58475;49.662;9.636;2023-03-03T12:03:33;5.79;85.35
70851;DHT22;58475;49.662;9.636;2023-03-03T12:06:12;5.88;85.27
70851;DHT22;58475;49.662;9.636;2023-03-03T12:08:50;5.92;84.80
70851;DHT22;58475;49.662;9.636;2023-03-03T12:14:43;5.99;84.64
70851;DHT22;58475;49.662;9.636;2023-03-03T12:28:02;6.40;84.20
70851;DHT22;58475;49.662;9.636;2023-03-03T12:33:36;6.53;83.61
70851;DHT22;58475;49.662;9.636;2023-03-03T12:44:13;6.78;82.88
70851;DHT22;58475;49.662;9.636;2023-03-03T12:46:52;6.82;83.02
70851;DHT22;58475;49.662;9.636;2023-03-03T12:49:23;6.89;82.80
70851;DHT22;58475;49.662;9.636;2023-03-03T12:52:10;6.91;82.39
70851;DHT22;58475;49.662;9.636;2023-03-03T12:57:32;7.01;82.41
70851;DHT22;58475;49.662;9.636;2023-03-03T13:05:56;7.12;82.48
70851;DHT22;58475;49.662;9.636;2023-03-03T13:16:32;7.22;81.46
70851;DHT22;58475;49.662;9.636;2023-03-03T13:19:41;7.22;81.43
70851;DHT22;58475;49.662;9.636;2023-03-03T13:21:54;7.25;81.42
70851;DHT22;58475;49.662;9.636;2023-03-03T13:27:22;7.30;81.67
70851;DHT22;58475;49.662;9.636;2023-03-03T13:30:03;7.30;81.61
70851;DHT22;58475;49.662;9.636;2023-03-03T13:35:08;7.37;81.52
70851;DHT22;58475;49.662;9.636;2023-03-03T13:37:41;7.46;81.76
70851;DHT22;58475;49.662;9.636;2023-03-03T13:40:22;7.49;81.38
70851;DHT22;58475;49.662;9.636;2023-03-03T13:42:49;7.50;81.24
70851;DHT22;58475;49.662;9.636;2023-03-03T13:50:56;7.70;81.28
70851;DHT22;58475;49.662;9.636;2023-03-03T13:53:37;7.75;81.18
70851;DHT22;58475;49.662;9.636;2023-03-03T13:56:26;7.78;81.09
70851;DHT22;58475;49.662;9.636;2023-03-03T14:05:02;7.95;80.28
70851;DHT22;58475;49.662;9.636;2023-03-03T14:07:37;8.01;80.11
70851;DHT22;58475;49.662;9.636;2023-03-03T14:10:11;8.08;80.30
70851;DHT22;58475;49.662;9.636;2023-03-03T14:13:05;8.11;79.96
70851;DHT22;58475;49.662;9.636;2023-03-03T14:15:35;8.14;80.15
70851;DHT22;58475;49.662;9.636;2023-03-03T14:20:37;8.28;79.58
70851;DHT22;58475;49.662;9.636;2023-03-03T14:23:15;8.33;79.51
70851;DHT22;58475;49.662;9.636;2023-03-03T14:25:58;8.39;79.91
70851;DHT22;58475;49.662;9.636;2023-03-03T14:28:29;8.48;79.55
70851;DHT22;58475;49.662;9.636;2023-03-03T14:31:13;8.52;79.53
70851;DHT22;58475;49.662;9.636;2023-03-03T14:33:42;8.60;79.07
70851;DHT22;58475;49.662;9.636;2023-03-03T14:36:11;8.70;78.70
70851;DHT22;58475;49.662;9.636;2023-03-03T14:38:40;8.77;78.65
70851;DHT22;58475;49.662;9.636;2023-03-03T14:41:16;8.83;78.85
70851;DHT22;58475;49.662;9.636;2023-03-03T14:43:59;8.90;78.37
70851;DHT22;58475;49.662;9.636;2023-03-03T14:46:33;9.01;78.50
70851;DHT22;58475;49.662;9.636;2023-03-03T14:49:06;9.11;78.66
70851;DHT22;58475;49.662;9.636;2023-03-03T14:57:18;9.34;77.75
70851;DHT22;58475;49.662;9.636;2023-03-03T15:02:58;9.51;77.61
70851;DHT22;58475;49.662;9.636;2023-03-03T15:05:27;9.55;77.23
70851;DHT22;58475;49.662;9.636;2023-03-03T15:08:06;9.56;76.83
70851;DHT22;58475;49.662;9.636;2023-03-03T15:10:39;9.63;77.18
70851;DHT22;58475;49.662;9.636;2023-03-03T15:15:59;9.62;76.20
70851;DHT22;58475;49.662;9.636;2023-03-03T15:18:27;9.56;75.43
70851;DHT22;58475;49.662;9.636;2023-03-03T15:21:08;9.44;75.58
70851;DHT22;58475;49.662;9.636;2023-03-03T15:26:27;9.21;76.04
70851;DHT22;58475;49.662;9.636;2023-03-03T15:29:12;9.34;76.30
70851;DHT22;58475;49.662;9.636;2023-03-03T15:31:50;9.36;76.15
70851;DHT22;58475;49.662;9.636;2023-03-03T15:39:48;9.38;76.40
70851;DHT22;58475;49.662;9.636;2023-03-03T15:50:48;9.23;76.91
70851;DHT22;58475;49.662;9.636;2023-03-03T15:53:28;9.23;77.19
70851;DHT22;58475;49.662;9.636;2023-03-03T15:55:58;9.18;77.41
70851;DHT22;58475;49.662;9.636;2023-03-03T16:03:52;9.07;77.61
70851;DHT22;58475;49.662;9.636;2023-03-03T16:06:32;9.04;77.56
70851;DHT22;58475;49.662;9.636;2023-03-03T16:09:15;8.99;77.70
70851;DHT22;58475;49.662;9.636;2023-03-03T16:11:48;8.94;77.11
70851;DHT22;58475;49.662;9.636;2023-03-03T16:22:47;8.76;77.76
70851;DHT22;58475;49.662;9.636;2023-03-03T16:25:25;8.72;77.83
70851;DHT22;58475;49.662;9.636;2023-03-03T16:28:02;8.69;78.03
70851;DHT22;58475;49.662;9.636;2023-03-03T16:30:42;8.63;78.03
70851;DHT22;58475;49.662;9.636;2023-03-03T16:38:39;8.41;78.49
70851;DHT22;58475;49.662;9.636;2023-03-03T16:41:14;8.41;78.07
70851;DHT22;58475;49.662;9.636;2023-03-03T16:46:28;8.35;78.06
70851;DHT22;58475;49.662;9.636;2023-03-03T16:51:47;8.31;78.57
70851;DHT22;58475;49.662;9.636;2023-03-03T16:54:19;8.26;78.85
70851;DHT22;58475;49.662;9.636;2023-03-03T17:10:28;8.02;79.43
70851;DHT22;58475;49.662;9.636;2023-03-03T17:18:59;7.88;79.51
70851;DHT22;58475;49.662;9.636;2023-03-03T17:21:57;7.83;79.59
70851;DHT22;58475;49.662;9.636;2023-03-03T17:27:14;7.75;79.91
70851;DHT22;58475;49.662;9.636;2023-03-03T17:29:52;7.64;79.72
70851;DHT22;58475;49.662;9.636;2023-03-03T17:32:32;7.63;79.77
70851;DHT22;58475;49.662;9.636;2023-03-03T17:35:34;7.62;80.07
70851;DHT22;58475;49.662;9.636;2023-03-03T17:38:13;7.56;80.23
70851;DHT22;58475;49.662;9.636;2023-03-03T17:41:08;7.57;80.40
70851;DHT22;58475;49.662;9.636;2023-03-03T17:46:16;7.46;80.15
70851;DHT22;58475;49.662;9.636;2023-03-03T17:48:52;7.40;80.30
70851;DHT22;58475;49.662;9.636;2023-03-03T17:54:37;7.32;80.36
70851;DHT22;58475;49.662;9.636;2023-03-03T17:57:18;7.26;80.30
70851;DHT22;58475;49.662;9.636;2023-03-03T18:00:10;7.22;80.52
70851;DHT22;58475;49.662;9.636;2023-03-03T18:08:02;7.02;80.66
70851;DHT22;58475;49.662;9.636;2023-03-03T18:10:47;6.98;80.94
70851;DHT22;58475;49.662;9.636;2023-03-03T18:21:47;6.73;81.21
70851;DHT22;58475;49.662;9.636;2023-03-03T18:24:27;6.67;81.41
70851;DHT22;58475;49.662;9.636;2023-03-03T18:26:54;6.61;81.41
70851;DHT22;58475;49.662;9.636;2023-03-03T18:29:27;6.58;81.51
70851;DHT22;58475;49.662;9.636;2023-03-03T18:34:39;6.45;81.69
70851;DHT22;58475;49.662;9.636;2023-03-03T18:42:44;6.29;81.82
70851;DHT22;58475;49.662;9.636;2023-03-03T18:48:10;6.14;81.84
70851;DHT22;58475;49.662;9.636;2023-03-03T18:50:38;6.07;81.94
70851;DHT22;58475;49.662;9.636;2023-03-03T18:53:16;6.02;81.97
70851;DHT22;58475;49.662;9.636;2023-03-03T19:00:50;5.82;82.34
70851;DHT22;58475;49.662;9.636;2023-03-03T19:03:28;5.74;82.18
70851;DHT22;58475;49.662;9.636;2023-03-03T19:05:54;5.72;82.90
70851;DHT22;58475;49.662;9.636;2023-03-03T19:08:54;5.69;82.96
70851;DHT22;58475;49.662;9.636;2023-03-03T19:11:53;5.62;83.04
70851;DHT22;58475;49.662;9.636;2023-03-03T19:16:52;5.54;82.66
70851;DHT22;58475;49.662;9.636;2023-03-03T19:19:30;5.50;82.93
70851;DHT22;58475;49.662;9.636;2023-03-03T19:24:39;5.41;82.82
70851;DHT22;58475;49.662;9.636;2023-03-03T19:27:18;5.34;82.82
70851;DHT22;58475;49.662;9.636;2023-03-03T19:36:05;5.17;83.16
70851;DHT22;58475;49.662;9.636;2023-03-03T19:58:14;5.14;82.33
70851;DHT22;58475;49.662;9.636;2023-03-03T20:00:46;5.09;82.11
70851;DHT22;58475;49.662;9.636;2023-03-03T20:06:20;5.03;82.20
70851;DHT22;58475;49.662;9.636;2023-03-03T20:14:28;4.92;82.89
70851;DHT22;58475;49.662;9.636;2023-03-03T20:17:02;4.87;82.86
70851;DHT22;58475;49.662;9.636;2023-03-03T20:22:26;4.80;82.55
70851;DHT22;58475;49.662;9.636;2023-03-03T20:27:28;4.75;82.76
70851;DHT22;58475;49.662;9.636;2023-03-03T20:30:05;4.71;82.89
70851;DHT22;58475;49.662;9.636;2023-03-03T20:35:42;4.59;83.33
70851;DHT22;58475;49.662;9.636;2023-03-03T20:46:20;4.30;84.19
70851;DHT22;58475;49.662;9.636;2023-03-03T20:56:49;4.08;84.93
70851;DHT22;58475;49.662;9.636;2023-03-03T20:59:26;4.04;84.68
70851;DHT22;58475;49.662;9.636;2023-03-03T21:04:39;4.00;85.07
70851;DHT22;58475;49.662;9.636;2023-03-03T21:07:05;3.97;85.02
70851;DHT22;58475;49.662;9.636;2023-03-03T21:09:37;3.93;84.69
70851;DHT22;58475;49.662;9.636;2023-03-03T21:12:29;3.89;85.01
70851;DHT22;58475;49.662;9.636;2023-03-03T21:15:10;3.86;84.95
70851;DHT22;58475;49.662;9.636;2023-03-03T21:17:44;3.82;85.02
70851;DHT22;58475;49.662;9.636;2023-03-03T21:22:50;3.74;85.20
70851;DHT22;58475;49.662;9.636;2023-03-03T21:36:13;3.63;85.71
70851;DHT22;58475;49.662;9.636;2023-03-03T21:38:41;3.64;85.96
70851;DHT22;58475;49.662;9.636;2023-03-03T21:41:07;3.62;85.81
70851;DHT22;58475;49.662;9.636;2023-03-03T21:43:42;3.58;85.96
70851;DHT22;58475;49.662;9.636;2023-03-03T21:46:08;3.58;86.00
70851;DHT22;58475;49.662;9.636;2023-03-03T21:48:34;3.55;86.07
70851;DHT22;58475;49.662;9.636;2023-03-03T21:51:00;3.55;86.51
70851;DHT22;58475;49.662;9.636;2023-03-03T21:53:25;3.49;85.95
70851;DHT22;58475;49.662;9.636;2023-03-03T21:55:54;3.48;86.05